Time;durP1;ratioP1;P1;durP2;ratioP2;P2;SDS_P1;SDS_P2;PMS_P1;PMS_P2;Temp;Humidity;BMP_temperature;BMP_pressure;BME280_temperature;BME280_humidity;BME280_pressure;Samples;Min_cycle;Max_cycle;Signal;HPM_P1;HPM_P2
2023/06/12 00:00:51;;;;;;;4.70;4.10;;;20.90;41.20;;;;;;4937283;29;20733;-73
2023/06/12 00:03:24;;;;;;;4.20;3.67;;;20.80;41.20;;;;;;4921671;29;20842;-73
2023/06/12 00:05:50;;;;;;;5.00;4.07;;;20.70;41.30;;;;;;4938775;29;20426;-73
2023/06/12 00:08:17;;;;;;;4.10;3.70;;;20.70;41.40;;;;;;4927413;29;20417;-72
2023/06/12 00:10:47;;;;;;;4.73;3.90;;;20.70;41.50;;;;;;4933881;28;20242;-72
2023/06/12 00:13:12;;;;;;;5.37;4.67;;;20.70;41.50;;;;;;4939433;29;20425;-72
2023/06/12 00:15:38;;;;;;;5.30;4.57;;;20.70;41.60;;;;;;4938590;29;20468;-72
2023/06/12 00:18:04;;;;;;;4.80;4.30;;;20.70;41.80;;;;;;4949647;29;20180;-73
2023/06/12 00:20:31;;;;;;;5.50;4.60;;;20.70;41.80;;;;;;4952364;29;20221;-73
2023/06/12 00:22:57;;;;;;;4.90;4.40;;;20.70;41.80;;;;;;4941235;29;20427;-72
2023/06/12 00:25:23;;;;;;;3.67;3.37;;;20.60;41.90;;;;;;4957978;29;20724;-71
2023/06/12 00:27:48;;;;;;;4.53;4.10;;;20.60;42.20;;;;;;4942790;29;20201;-73
2023/06/12 00:30:14;;;;;;;3.50;3.20;;;20.60;42.40;;;;;;4940138;29;20223;-72
2023/06/12 00:32:40;;;;;;;3.37;3.07;;;20.50;42.70;;;;;;4929122;29;20189;-72
2023/06/12 00:35:06;;;;;;;3.97;3.13;;;20.40;43.00;;;;;;4954453;29;20486;-73
2023/06/12 00:37:32;;;;;;;2.50;2.30;;;20.30;43.30;;;;;;4956649;29;20237;-73
2023/06/12 00:39:58;;;;;;;3.57;2.97;;;20.10;43.50;;;;;;4927288;29;20904;-72
2023/06/12 00:42:30;;;;;;;3.63;2.80;;;20.00;43.80;;;;;;4942960;29;20408;-72
2023/06/12 00:44:56;;;;;;;3.13;2.53;;;19.90;44.00;;;;;;4946237;29;20199;-72
2023/06/12 00:47:22;;;;;;;3.93;3.27;;;19.90;44.30;;;;;;4938212;29;20434;-73
2023/06/12 00:49:48;;;;;;;3.73;2.40;;;19.80;44.50;;;;;;4936866;29;20433;-71
2023/06/12 00:52:15;;;;;;;3.00;2.60;;;19.80;44.80;;;;;;4951706;29;20437;-72
2023/06/12 00:54:43;;;;;;;3.60;3.13;;;19.70;45.20;;;;;;4950233;29;20224;-71
2023/06/12 00:57:09;;;;;;;4.13;3.33;;;19.70;45.50;;;;;;4940135;29;20425;-72
2023/06/12 00:59:35;;;;;;;3.70;3.40;;;19.70;45.70;;;;;;4956476;29;20441;-72
2023/06/12 01:02:03;;;;;;;3.50;3.20;;;19.80;45.90;;;;;;4957303;29;20428;-73
2023/06/12 01:04:29;;;;;;;4.33;3.93;;;19.80;46.00;;;;;;4950333;29;20435;-72
2023/06/12 01:07:14;;;;;;;3.37;3.07;;;19.70;46.00;;;;;;4939439;29;20702;-72
2023/06/12 01:09:55;;;;;;;2.97;2.77;;;19.70;46.20;;;;;;4938999;29;20449;-72
2023/06/12 01:12:22;;;;;;;2.97;2.60;;;19.60;46.20;;;;;;4922291;29;20471;-72
2023/06/12 01:14:48;;;;;;;2.90;2.30;;;19.50;46.40;;;;;;4921584;29;20873;-73
2023/06/12 01:17:13;;;;;;;2.63;2.23;;;19.30;46.50;;;;;;4920440;29;20450;-72
2023/06/12 01:19:41;;;;;;;2.53;2.33;;;19.30;46.60;;;;;;4912415;29;20289;-72
2023/06/12 01:22:10;;;;;;;2.77;2.53;;;19.20;46.70;;;;;;4920463;29;20717;-72
2023/06/12 01:24:45;;;;;;;2.87;2.43;;;19.20;46.70;;;;;;4920477;29;20445;-73
2023/06/12 01:27:29;;;;;;;3.50;2.70;;;19.20;46.70;;;;;;4937390;29;20459;-73
2023/06/12 01:30:00;;;;;;;3.00;2.70;;;19.10;46.80;;;;;;4936960;29;20467;-72
2023/06/12 01:32:29;;;;;;;4.20;3.20;;;19.00;46.70;;;;;;4920091;29;20424;-72
2023/06/12 01:35:03;;;;;;;3.50;3.20;;;19.10;46.90;;;;;;4916370;29;20493;-72
2023/06/12 01:37:47;;;;;;;4.00;3.47;;;19.20;46.60;;;;;;4909362;29;20444;-73
2023/06/12 01:40:19;;;;;;;3.50;3.20;;;19.20;46.30;;;;;;4915291;29;20443;-73
2023/06/12 01:42:46;;;;;;;4.73;4.00;;;19.30;46.10;;;;;;4913846;29;20457;-73
2023/06/12 01:45:12;;;;;;;3.93;3.30;;;19.20;46.00;;;;;;4917756;29;20512;-73
2023/06/12 01:47:38;;;;;;;4.93;4.17;;;19.20;46.10;;;;;;4930916;29;20197;-72
2023/06/12 01:50:05;;;;;;;3.83;3.33;;;19.20;46.10;;;;;;4920060;29;20930;-73
2023/06/12 01:52:32;;;;;;;4.00;3.47;;;19.10;46.10;;;;;;4923963;29;20203;-72
2023/06/12 01:54:59;;;;;;;3.60;3.30;;;19.10;46.10;;;;;;4941319;29;20994;-72
2023/06/12 01:57:25;;;;;;;4.43;3.50;;;19.10;46.10;;;;;;4912199;29;20429;-72
2023/06/12 01:59:53;;;;;;;3.60;3.17;;;19.20;46.10;;;;;;4923282;29;20429;-72
2023/06/12 02:02:20;;;;;;;3.20;2.57;;;19.20;46.10;;;;;;4917960;29;20444;-72
2023/06/12 02:04:46;;;;;;;2.53;2.30;;;19.20;46.30;;;;;;4917998;29;20484;-72
2023/06/12 02:07:13;;;;;;;3.93;3.57;;;19.10;46.30;;;;;;4940857;29;20255;-72
2023/06/12 02:09:38;;;;;;;3.70;3.40;;;19.10;46.50;;;;;;4940460;29;20534;-73
2023/06/12 02:12:06;;;;;;;4.57;4.13;;;19.10;46.70;;;;;;4944904;29;20476;-72
2023/06/12 02:14:32;;;;;;;4.83;3.77;;;19.10;46.80;;;;;;4930684;29;20489;-72
2023/06/12 02:16:57;;;;;;;3.47;3.17;;;19.20;47.00;;;;;;4974501;28;20460;-73
2023/06/12 02:19:25;;;;;;;2.67;2.47;;;19.10;46.90;;;;;;4942239;29;20210;-73
2023/06/12 02:22:00;;;;;;;3.90;3.50;;;19.00;47.10;;;;;;4946285;29;20423;-73
2023/06/12 02:24:29;;;;;;;3.40;3.10;;;18.90;47.30;;;;;;4950824;28;20440;-73
2023/06/12 02:26:55;;;;;;;3.77;3.30;;;18.90;47.50;;;;;;4942549;29;20477;-73
2023/06/12 02:29:20;;;;;;;3.87;3.00;;;18.80;47.60;;;;;;4946015;28;20449;-72
2023/06/12 02:31:51;;;;;;;5.33;2.73;;;18.80;47.80;;;;;;4961805;28;20491;-73
2023/06/12 02:34:16;;;;;;;3.10;2.77;;;18.80;48.00;;;;;;4964536;28;20548;-72
2023/06/12 02:36:42;;;;;;;3.00;2.50;;;18.70;48.20;;;;;;4942755;29;20184;-72
2023/06/12 02:39:13;;;;;;;3.57;3.20;;;18.70;48.40;;;;;;4944183;28;20218;-72
2023/06/12 02:41:42;;;;;;;2.73;2.53;;;18.60;48.70;;;;;;4941340;29;20421;-72
2023/06/12 02:44:07;;;;;;;5.47;3.67;;;18.60;49.00;;;;;;4933517;29;20422;-73
2023/06/12 02:46:36;;;;;;;4.90;4.40;;;18.60;49.30;;;;;;4935087;29;20440;-72
2023/06/12 02:49:02;;;;;;;4.63;4.17;;;18.60;49.90;;;;;;4957947;28;20236;-72
2023/06/12 02:51:28;;;;;;;5.43;4.93;;;18.70;50.50;;;;;;4944766;29;20474;-73
2023/06/12 02:53:54;;;;;;;5.53;4.87;;;18.70;50.70;;;;;;4942506;29;20442;-73
2023/06/12 02:56:19;;;;;;;5.50;4.73;;;18.80;51.00;;;;;;4938877;29;20521;-73
2023/06/12 02:58:46;;;;;;;5.00;4.50;;;18.90;51.10;;;;;;4939326;29;20232;-73
2023/06/12 03:01:16;;;;;;;4.70;4.30;;;18.90;51.20;;;;;;4940792;28;20193;-73
2023/06/12 03:03:44;;;;;;;5.50;5.00;;;18.90;51.20;;;;;;4954069;29;20477;-74
2023/06/12 03:06:10;;;;;;;5.20;4.70;;;18.80;51.20;;;;;;4929117;29;20442;-72
2023/06/12 03:08:35;;;;;;;4.53;3.20;;;18.80;51.10;;;;;;4956408;29;20427;-73
2023/06/12 03:11:01;;;;;;;5.83;4.77;;;18.70;50.90;;;;;;4957114;29;20544;-72
2023/06/12 03:13:27;;;;;;;4.73;4.33;;;18.70;50.60;;;;;;4923622;29;20191;-72
2023/06/12 03:15:55;;;;;;;6.60;4.97;;;18.70;50.20;;;;;;4921905;29;20215;-73
2023/06/12 03:18:20;;;;;;;5.43;4.93;;;18.70;49.90;;;;;;4941891;29;20856;-73
2023/06/12 03:20:46;;;;;;;7.20;5.10;;;18.70;49.70;;;;;;4933904;29;20450;-73
2023/06/12 03:23:11;;;;;;;7.30;5.60;;;18.70;49.30;;;;;;4925935;29;20188;-72
2023/06/12 03:25:37;;;;;;;7.27;5.83;;;18.80;49.10;;;;;;4936698;29;20246;-73
2023/06/12 03:28:04;;;;;;;5.63;5.07;;;18.80;48.80;;;;;;4937428;29;20195;-72
2023/06/12 03:30:29;;;;;;;6.63;5.57;;;18.80;48.90;;;;;;4937958;29;20476;-72
2023/06/12 03:32:56;;;;;;;5.60;5.00;;;18.80;49.00;;;;;;4926529;29;20273;-73
2023/06/12 03:35:22;;;;;;;9.20;5.57;;;18.80;49.10;;;;;;4921707;29;20361;-72
2023/06/12 03:37:47;;;;;;;8.53;6.17;;;18.80;49.40;;;;;;4921614;29;20437;-72
2023/06/12 03:40:15;;;;;;;5.57;5.07;;;18.80;49.60;;;;;;4921373;29;20201;-73
2023/06/12 03:42:42;;;;;;;8.83;6.27;;;18.80;49.60;;;;;;4915871;29;20419;-72
2023/06/12 03:45:10;;;;;;;6.30;5.03;;;18.80;49.80;;;;;;4936501;29;20425;-73
2023/06/12 03:47:35;;;;;;;6.17;5.53;;;18.80;49.80;;;;;;4922305;29;20306;-72
2023/06/12 03:50:07;;;;;;;8.60;5.50;;;18.80;49.90;;;;;;4922136;29;20521;-72
2023/06/12 03:52:32;;;;;;;6.20;5.23;;;18.80;50.00;;;;;;4922139;29;20693;-73
2023/06/12 03:54:59;;;;;;;5.60;4.97;;;18.80;50.00;;;;;;4922217;29;20470;-73
2023/06/12 03:57:25;;;;;;;6.53;5.40;;;18.90;50.10;;;;;;4934711;29;20900;-72
2023/06/12 03:59:50;;;;;;;5.90;5.30;;;18.90;50.10;;;;;;4960030;29;20194;-72
2023/06/12 04:02:16;;;;;;;7.90;5.53;;;19.00;50.00;;;;;;4934755;29;20609;-72
2023/06/12 04:04:42;;;;;;;9.30;5.43;;;19.00;49.90;;;;;;4921545;29;20440;-73
2023/06/12 04:07:07;;;;;;;8.43;5.47;;;19.00;49.90;;;;;;4935934;29;20628;-73
2023/06/12 04:09:33;;;;;;;6.57;5.23;;;19.10;50.00;;;;;;4940032;29;20216;-73
2023/06/12 04:12:00;;;;;;;7.23;5.17;;;19.10;50.00;;;;;;4947643;28;20464;-73
2023/06/12 04:14:25;;;;;;;5.50;5.00;;;19.10;50.00;;;;;;4959089;28;20244;-71
2023/06/12 04:16:51;;;;;;;6.53;5.77;;;19.20;50.20;;;;;;4959789;28;20433;-73
2023/06/12 04:19:17;;;;;;;6.77;5.73;;;19.20;50.20;;;;;;4948568;29;20497;-73
2023/06/12 04:21:43;;;;;;;8.30;6.20;;;19.30;50.40;;;;;;4942529;28;20250;-73
2023/06/12 04:24:15;;;;;;;8.17;6.53;;;19.30;50.30;;;;;;4960654;28;20480;-74
2023/06/12 04:26:44;;;;;;;7.63;6.27;;;19.30;50.30;;;;;;4921043;29;20612;-74
2023/06/12 04:29:11;;;;;;;6.33;5.73;;;19.40;50.30;;;;;;4923712;28;20510;-73
2023/06/12 04:31:38;;;;;;;7.30;6.03;;;19.40;50.20;;;;;;4959338;28;20415;-73
2023/06/12 04:34:06;;;;;;;6.90;5.67;;;19.40;50.10;;;;;;4945457;28;20881;-73
2023/06/12 04:36:33;;;;;;;8.20;5.40;;;19.50;50.10;;;;;;4944497;29;20438;-73
2023/06/12 04:38:59;;;;;;;5.93;5.33;;;19.50;50.00;;;;;;4921165;29;20540;-72
2023/06/12 04:41:27;;;;;;;6.90;6.17;;;19.50;49.90;;;;;;4931016;29;20441;-72
2023/06/12 04:43:58;;;;;;;6.60;5.50;;;19.60;50.00;;;;;;4924779;29;20412;-73
2023/06/12 04:46:28;;;;;;;6.47;5.00;;;19.80;49.80;;;;;;4926562;29;20423;-73
2023/06/12 04:48:55;;;;;;;6.27;5.67;;;20.30;49.30;;;;;;4951924;29;20447;-74
2023/06/12 04:51:23;;;;;;;5.00;4.50;;;20.60;48.60;;;;;;4952481;28;20432;-73
2023/06/12 04:53:53;;;;;;;5.70;5.00;;;20.90;48.20;;;;;;4940950;29;20514;-73
2023/06/12 04:56:22;;;;;;;5.03;4.60;;;21.10;47.90;;;;;;4953835;29;20469;-73
2023/06/12 04:58:49;;;;;;;4.73;4.13;;;21.10;47.80;;;;;;4939550;29;20438;-72
2023/06/12 05:01:21;;;;;;;5.97;4.30;;;21.10;48.00;;;;;;4957478;29;20403;-77
2023/06/12 05:03:49;;;;;;;6.73;5.60;;;21.00;48.30;;;;;;4958283;29;20424;-72
2023/06/12 05:06:16;;;;;;;6.07;4.63;;;20.80;48.50;;;;;;4945222;29;20424;-75
2023/06/12 05:08:42;;;;;;;6.67;5.20;;;20.90;48.70;;;;;;4933510;29;20764;-73
2023/06/12 05:11:08;;;;;;;10.80;7.60;;;21.20;48.50;;;;;;4936667;29;20518;-75
2023/06/12 05:13:35;;;;;;;8.90;6.67;;;21.30;48.20;;;;;;4907136;29;20269;-75
2023/06/12 05:16:00;;;;;;;9.47;6.77;;;21.30;48.30;;;;;;4923079;29;20222;-74
2023/06/12 05:18:26;;;;;;;10.97;7.00;;;21.30;48.50;;;;;;4928954;29;20477;-74
2023/06/12 05:20:51;;;;;;;8.93;7.20;;;21.60;48.50;;;;;;4953141;29;20437;-75
2023/06/12 05:23:17;;;;;;;10.23;7.23;;;22.10;47.90;;;;;;4933736;29;20197;-76
2023/06/12 05:25:44;;;;;;;9.10;7.80;;;22.60;47.00;;;;;;4934294;29;20245;-77
2023/06/12 05:28:09;;;;;;;9.73;7.27;;;23.30;46.90;;;;;;4933657;29;20444;-76
2023/06/12 05:30:35;;;;;;;6.57;5.90;;;23.60;45.20;;;;;;4952003;29;20449;-74
2023/06/12 05:33:03;;;;;;;7.20;6.30;;;23.60;44.70;;;;;;4950701;29;20196;-77
2023/06/12 05:35:31;;;;;;;12.10;7.87;;;23.60;44.70;;;;;;4915446;29;20473;-74
2023/06/12 05:37:57;;;;;;;13.37;8.00;;;23.90;44.10;;;;;;4930209;29;20431;-77
2023/06/12 05:40:23;;;;;;;13.30;7.63;;;24.20;43.30;;;;;;4949927;29;20521;-76
2023/06/12 05:42:48;;;;;;;9.80;7.10;;;24.40;43.30;;;;;;4919664;29;20185;-76
2023/06/12 05:45:14;;;;;;;9.10;8.17;;;24.70;43.20;;;;;;4935191;29;20181;-80
2023/06/12 05:47:40;;;;;;;9.70;8.33;;;24.60;43.00;;;;;;4945741;29;20292;-74
2023/06/12 05:50:07;;;;;;;12.10;7.83;;;24.70;42.70;;;;;;4931865;29;20209;-76
2023/06/12 05:52:34;;;;;;;10.03;7.60;;;24.70;42.60;;;;;;4949510;29;20431;-76
2023/06/12 05:54:59;;;;;;;6.27;5.57;;;24.70;42.70;;;;;;4950775;29;20557;-75
2023/06/12 05:57:25;;;;;;;7.37;6.67;;;25.10;42.60;;;;;;4946313;29;20177;-78
2023/06/12 05:59:52;;;;;;;7.20;6.50;;;25.20;42.30;;;;;;4932131;29;20209;-75
2023/06/12 06:02:18;;;;;;;6.10;5.50;;;25.30;41.80;;;;;;4931551;29;20414;-75
2023/06/12 06:04:46;;;;;;;8.40;5.93;;;25.40;42.00;;;;;;4923296;29;20218;-77
2023/06/12 06:07:12;;;;;;;7.83;6.60;;;25.70;41.70;;;;;;4916649;29;20457;-74
2023/06/12 06:09:38;;;;;;;8.63;5.73;;;25.70;41.70;;;;;;4939077;29;20456;-76
2023/06/12 06:12:11;;;;;;;6.40;5.60;;;25.90;41.50;;;;;;4945112;29;20273;-76
2023/06/12 06:14:37;;;;;;;9.40;6.13;;;26.10;41.30;;;;;;4946835;29;20489;-76
2023/06/12 06:17:02;;;;;;;6.10;5.50;;;26.20;40.60;;;;;;4946748;29;20200;-75
2023/06/12 06:19:30;;;;;;;7.00;6.40;;;26.30;40.50;;;;;;4959230;29;20352;-75
2023/06/12 06:21:58;;;;;;;8.10;6.50;;;26.50;40.20;;;;;;4949477;29;20864;-78
2023/06/12 06:24:24;;;;;;;8.57;6.20;;;26.60;39.80;;;;;;4950520;28;20948;-76
2023/06/12 06:26:50;;;;;;;6.40;5.73;;;26.60;39.80;;;;;;4962084;29;20464;-76
2023/06/12 06:29:17;;;;;;;6.33;5.73;;;26.40;39.80;;;;;;4935127;29;20512;-77
2023/06/12 06:31:42;;;;;;;5.93;5.40;;;26.50;39.60;;;;;;4951134;29;20487;-77
2023/06/12 06:34:10;;;;;;;7.70;6.30;;;26.70;39.70;;;;;;4967224;29;20201;-77
2023/06/12 06:36:35;;;;;;;6.97;5.30;;;26.80;39.50;;;;;;4951165;29;20584;-74
2023/06/12 06:39:01;;;;;;;6.03;5.43;;;27.10;39.30;;;;;;4933513;29;20437;-73
2023/06/12 06:41:26;;;;;;;6.20;5.60;;;27.50;38.60;;;;;;4968437;29;20177;-75
2023/06/12 06:43:53;;;;;;;6.43;5.70;;;27.70;37.70;;;;;;4952497;29;20185;-77
2023/06/12 06:46:19;;;;;;;7.20;6.40;;;27.80;37.80;;;;;;4968680;29;20416;-74
2023/06/12 06:48:45;;;;;;;6.40;5.90;;;27.90;37.70;;;;;;4949984;29;20523;-76
2023/06/12 06:51:10;;;;;;;7.70;7.10;;;28.00;37.50;;;;;;4950835;29;20185;-76
2023/06/12 06:53:36;;;;;;;6.20;5.70;;;27.80;37.30;;;;;;4952781;29;20196;-77
2023/06/12 06:56:02;;;;;;;6.07;5.50;;;27.70;37.30;;;;;;4938889;28;20625;-78
2023/06/12 06:58:28;;;;;;;7.50;6.70;;;27.40;37.70;;;;;;4986217;28;20428;-77
2023/06/12 07:00:54;;;;;;;5.90;5.30;;;27.20;38.00;;;;;;4937384;29;20210;-77
2023/06/12 07:03:19;;;;;;;6.23;5.73;;;26.80;38.50;;;;;;4932731;29;20267;-75
2023/06/12 07:05:46;;;;;;;6.40;5.90;;;26.60;39.10;;;;;;4939844;29;20220;-76
2023/06/12 07:08:12;;;;;;;7.73;6.03;;;26.40;39.40;;;;;;4954783;29;20412;-76
2023/06/12 07:10:40;;;;;;;8.60;6.17;;;26.50;39.60;;;;;;4965287;28;20421;-76
2023/06/12 07:13:08;;;;;;;6.73;6.13;;;26.50;39.60;;;;;;4947515;29;20431;-75
2023/06/12 07:15:54;;;;;;;6.23;5.67;;;26.30;39.80;;;;;;4931949;29;20496;-78
2023/06/12 07:18:21;;;;;;;6.43;5.93;;;26.40;39.70;;;;;;4932358;29;20445;-75
2023/06/12 07:20:47;;;;;;;6.00;5.40;;;26.40;40.40;;;;;;4948638;29;20441;-77
2023/06/12 07:23:13;;;;;;;6.60;5.90;;;26.40;39.80;;;;;;4933397;29;20185;-77
2023/06/12 07:25:38;;;;;;;8.00;6.03;;;26.40;40.00;;;;;;4950513;29;20177;-75
2023/06/12 07:28:05;;;;;;;8.40;6.80;;;26.50;40.10;;;;;;4953088;29;20189;-76
2023/06/12 07:30:30;;;;;;;6.20;5.60;;;26.50;39.80;;;;;;4946549;29;20762;-77
2023/06/12 07:32:56;;;;;;;6.03;5.47;;;26.50;39.60;;;;;;4932021;29;20205;-75
2023/06/12 07:35:22;;;;;;;6.80;6.00;;;26.30;39.80;;;;;;4936429;29;20232;-77
2023/06/12 07:37:49;;;;;;;6.37;5.70;;;26.20;40.30;;;;;;4948495;29;20220;-77
2023/06/12 07:40:15;;;;;;;6.13;5.63;;;26.10;40.40;;;;;;4938933;29;20516;-77
2023/06/12 07:42:42;;;;;;;6.67;6.03;;;26.10;40.60;;;;;;4954204;29;20439;-77
2023/06/12 07:45:09;;;;;;;6.90;6.23;;;25.90;41.20;;;;;;4950886;29;20644;-77
2023/06/12 07:47:36;;;;;;;6.80;5.93;;;25.80;41.20;;;;;;4949711;29;20488;-77
2023/06/12 07:50:03;;;;;;;6.90;6.10;;;25.70;41.50;;;;;;4950597;29;20445;-76
2023/06/12 07:52:32;;;;;;;8.90;5.73;;;25.70;42.50;;;;;;4935381;29;20181;-76
2023/06/12 07:54:58;;;;;;;6.93;6.33;;;25.70;42.20;;;;;;4955046;29;20764;-76
2023/06/12 07:57:24;;;;;;;7.60;6.10;;;25.60;42.40;;;;;;4944295;29;20182;-77
2023/06/12 07:59:50;;;;;;;7.97;6.13;;;25.60;42.40;;;;;;4932791;29;20617;-78
2023/06/12 08:02:16;;;;;;;6.83;6.13;;;25.50;41.90;;;;;;4943844;29;20182;-77
2023/06/12 08:04:42;;;;;;;6.23;5.63;;;25.40;42.30;;;;;;4950497;28;20463;-76
2023/06/12 08:07:12;;;;;;;7.40;6.00;;;25.40;42.70;;;;;;4970311;28;20404;-76
2023/06/12 08:09:42;;;;;;;7.43;6.83;;;25.40;42.90;;;;;;4967048;28;20538;-78
2023/06/12 08:12:11;;;;;;;7.03;6.10;;;25.50;43.00;;;;;;4969537;28;20458;-77
2023/06/12 08:14:37;;;;;;;6.87;6.27;;;25.30;43.20;;;;;;4965400;29;20460;-75
2023/06/12 08:17:03;;;;;;;8.07;7.37;;;25.30;43.40;;;;;;4952939;29;20413;-76
2023/06/12 08:19:32;;;;;;;6.93;6.30;;;25.30;43.60;;;;;;4950658;29;20523;-78
2023/06/12 08:21:58;;;;;;;6.37;5.77;;;25.40;43.70;;;;;;4963926;29;20519;-77
2023/06/12 08:24:29;;;;;;;7.87;6.73;;;25.60;43.60;;;;;;4951589;29;20432;-77
2023/06/12 08:26:55;;;;;;;10.07;7.20;;;25.70;43.50;;;;;;4936129;29;20432;-76
2023/06/12 08:29:21;;;;;;;6.53;5.67;;;25.80;43.30;;;;;;4942881;29;20444;-75
2023/06/12 08:31:48;;;;;;;7.87;7.13;;;26.00;43.30;;;;;;4932940;29;20409;-75
2023/06/12 08:34:13;;;;;;;7.27;6.67;;;26.20;42.20;;;;;;4955141;29;20424;-77
2023/06/12 08:36:40;;;;;;;8.67;6.97;;;26.20;42.60;;;;;;4966760;29;20181;-76
2023/06/12 08:39:06;;;;;;;6.70;5.40;;;26.20;42.50;;;;;;4967781;28;20435;-77
2023/06/12 08:41:34;;;;;;;7.90;7.13;;;26.30;42.50;;;;;;4917344;29;20182;-76
2023/06/12 08:44:01;;;;;;;8.03;7.33;;;26.40;42.50;;;;;;4930712;29;20410;-77
2023/06/12 08:46:36;;;;;;;7.87;7.13;;;26.40;42.20;;;;;;4955301;29;20416;-79
2023/06/12 08:49:01;;;;;;;7.53;6.83;;;26.40;42.30;;;;;;4951287;29;20444;-78
2023/06/12 08:51:28;;;;;;;6.90;6.30;;;26.50;42.10;;;;;;4973782;29;20203;-77
2023/06/12 08:53:56;;;;;;;6.80;6.20;;;26.50;42.10;;;;;;4954129;29;20496;-76
2023/06/12 08:56:22;;;;;;;6.73;6.03;;;26.50;42.00;;;;;;4973286;29;20484;-77
2023/06/12 08:58:47;;;;;;;7.10;6.40;;;26.70;41.90;;;;;;4955332;29;20412;-76
2023/06/12 09:01:14;;;;;;;7.73;6.40;;;26.70;41.60;;;;;;4973540;29;20168;-77
2023/06/12 09:03:48;;;;;;;6.87;6.17;;;26.90;41.70;;;;;;4950905;29;20186;-78
2023/06/12 09:06:18;;;;;;;7.63;6.43;;;26.90;41.60;;;;;;4921280;29;20486;-76
2023/06/12 09:08:45;;;;;;;8.23;7.43;;;27.10;41.50;;;;;;4953729;29;20481;-77
2023/06/12 09:11:11;;;;;;;6.93;6.33;;;27.20;41.60;;;;;;4937128;29;20465;-76
2023/06/12 09:13:42;;;;;;;7.00;6.30;;;27.20;41.50;;;;;;4954046;29;20444;-77
2023/06/12 09:16:12;;;;;;;6.03;5.53;;;27.30;41.30;;;;;;4943370;29;20209;-78
2023/06/12 09:18:49;;;;;;;7.70;7.00;;;27.40;41.30;;;;;;4967647;29;20449;-76
2023/06/12 09:21:16;;;;;;;6.57;6.00;;;27.60;40.50;;;;;;4953682;29;20411;-75
2023/06/12 09:23:45;;;;;;;8.90;7.40;;;27.70;40.20;;;;;;4953893;29;20424;-73
2023/06/12 09:26:15;;;;;;;7.87;6.20;;;27.80;39.70;;;;;;4953362;29;20420;-76
2023/06/12 09:28:44;;;;;;;6.93;6.30;;;27.80;40.00;;;;;;4969504;29;20405;-78
2023/06/12 09:31:11;;;;;;;9.23;5.90;;;27.80;39.70;;;;;;4960349;28;20428;-77
2023/06/12 09:33:40;;;;;;;6.67;6.03;;;28.00;39.30;;;;;;4982740;28;20412;-76
2023/06/12 09:36:10;;;;;;;6.63;6.03;;;28.10;39.00;;;;;;4953343;29;20456;-76
2023/06/12 09:38:36;;;;;;;10.47;5.97;;;28.20;38.90;;;;;;4939754;29;20416;-77
2023/06/12 09:41:04;;;;;;;6.40;5.90;;;28.30;38.40;;;;;;4955216;29;20428;-79
2023/06/12 09:43:31;;;;;;;6.87;6.27;;;28.20;38.30;;;;;;4938109;29;20556;-78
2023/06/12 09:45:59;;;;;;;6.27;5.67;;;28.10;38.30;;;;;;4953392;29;20880;-75
2023/06/12 09:48:32;;;;;;;6.83;5.67;;;28.00;38.30;;;;;;4954215;29;20419;-77
2023/06/12 09:51:04;;;;;;;8.87;6.63;;;28.00;38.70;;;;;;4953311;29;20445;-76
2023/06/12 09:53:30;;;;;;;6.60;6.00;;;28.00;38.90;;;;;;4972314;29;20436;-78
2023/06/12 09:55:57;;;;;;;6.47;5.97;;;28.10;38.90;;;;;;4953501;29;20556;-76
2023/06/12 09:58:23;;;;;;;6.80;6.07;;;28.10;39.20;;;;;;4941766;28;20448;-75
2023/06/12 10:00:55;;;;;;;6.67;6.03;;;28.10;39.00;;;;;;4959132;28;20447;-78
2023/06/12 10:03:24;;;;;;;6.70;6.10;;;28.00;38.40;;;;;;4974879;28;20428;-76
2023/06/12 10:05:51;;;;;;;7.60;6.93;;;28.10;38.70;;;;;;4959436;29;20420;-76
2023/06/12 10:08:18;;;;;;;8.50;6.43;;;28.20;38.80;;;;;;4937799;29;20464;-77
2023/06/12 10:10:44;;;;;;;8.27;6.07;;;28.20;38.80;;;;;;4943646;28;20467;-77
2023/06/12 10:13:11;;;;;;;7.27;6.20;;;28.10;38.50;;;;;;4972984;28;20404;-77
2023/06/12 10:15:39;;;;;;;6.60;5.93;;;28.10;37.70;;;;;;4991509;28;20454;-76
2023/06/12 10:18:06;;;;;;;6.17;5.67;;;28.10;37.80;;;;;;4959949;28;20401;-78
2023/06/12 10:20:32;;;;;;;8.40;6.90;;;28.10;37.40;;;;;;4973709;28;20440;-78
2023/06/12 10:22:59;;;;;;;7.13;6.53;;;28.10;36.60;;;;;;4960717;28;20404;-79
2023/06/12 10:25:25;;;;;;;7.83;7.07;;;28.20;37.50;;;;;;4961203;28;20432;-79
2023/06/12 10:27:53;;;;;;;6.97;6.27;;;28.30;36.80;;;;;;4980463;28;20396;-80
2023/06/12 10:30:19;;;;;;;6.93;5.97;;;28.40;36.70;;;;;;4960222;28;20436;-78
2023/06/12 10:32:46;;;;;;;7.43;6.20;;;28.40;36.70;;;;;;4978713;28;20408;-78
2023/06/12 10:35:12;;;;;;;6.90;6.20;;;28.40;36.40;;;;;;4980554;28;20956;-80
2023/06/12 10:37:45;;;;;;;5.70;5.20;;;28.40;36.50;;;;;;4960900;28;20418;-79
2023/06/12 10:40:16;;;;;;;6.27;5.77;;;28.50;36.40;;;;;;4972819;28;20449;-78
2023/06/12 10:42:54;;;;;;;10.70;6.80;;;28.50;36.40;;;;;;4955181;28;20430;-78
2023/06/12 10:45:33;;;;;;;7.17;6.47;;;28.60;36.10;;;;;;4948887;29;20740;-80
2023/06/12 10:48:04;;;;;;;7.17;6.57;;;28.80;36.00;;;;;;4951948;29;20418;-79
2023/06/12 10:50:31;;;;;;;7.17;6.27;;;28.80;35.70;;;;;;4939894;29;20473;-78
2023/06/12 10:53:01;;;;;;;6.60;6.00;;;28.80;35.20;;;;;;4952608;28;20550;-77
2023/06/12 10:55:27;;;;;;;8.20;6.10;;;28.90;34.90;;;;;;4953039;29;20465;-79
2023/06/12 10:57:58;;;;;;;5.70;5.20;;;28.90;35.10;;;;;;4953779;29;20778;-80
2023/06/12 11:00:33;;;;;;;7.50;6.40;;;29.00;35.30;;;;;;4939134;29;20232;-76
2023/06/12 11:03:13;;;;;;;6.23;5.63;;;29.10;35.20;;;;;;4952506;29;20421;-79
2023/06/12 11:05:46;;;;;;;6.77;6.17;;;29.10;35.00;;;;;;4954604;29;20405;-78
2023/06/12 11:08:12;;;;;;;6.53;6.03;;;29.20;35.00;;;;;;4952687;29;20421;-79
2023/06/12 11:10:38;;;;;;;7.43;6.47;;;29.30;34.70;;;;;;4939379;28;20892;-77
2023/06/12 11:13:04;;;;;;;7.20;6.50;;;29.40;34.00;;;;;;4977242;28;20588;-79
2023/06/12 11:15:39;;;;;;;6.87;6.37;;;29.40;34.20;;;;;;4976643;28;20451;-78
2023/06/12 11:18:05;;;;;;;12.10;6.03;;;29.40;34.00;;;;;;4989578;28;20450;-76
2023/06/12 11:20:33;;;;;;;10.00;6.60;;;29.50;33.80;;;;;;4968450;29;20990;-75
2023/06/12 11:23:02;;;;;;;7.73;6.00;;;29.70;33.00;;;;;;4969846;29;20294;-79
2023/06/12 11:25:44;;;;;;;6.13;5.53;;;29.70;31.80;;;;;;4970737;29;20427;-77
2023/06/12 11:28:12;;;;;;;6.90;6.30;;;29.70;32.80;;;;;;4962954;28;20436;-76
2023/06/12 11:30:38;;;;;;;6.50;6.00;;;29.90;32.50;;;;;;4960163;29;20450;-79
2023/06/12 11:33:13;;;;;;;6.77;6.17;;;29.80;32.50;;;;;;4954011;29;20884;-79
2023/06/12 11:35:47;;;;;;;7.03;6.33;;;29.90;32.40;;;;;;4933928;29;20449;-78
2023/06/12 11:38:14;;;;;;;6.43;5.93;;;30.00;32.70;;;;;;4933927;29;20425;-79
2023/06/12 11:40:41;;;;;;;6.10;5.57;;;30.20;32.80;;;;;;4934709;29;20433;-80
2023/06/12 11:43:07;;;;;;;6.73;6.23;;;30.30;32.50;;;;;;4937346;29;20440;-78
2023/06/12 11:45:33;;;;;;;5.63;5.23;;;30.40;32.20;;;;;;4955573;29;20789;-79
2023/06/12 11:48:02;;;;;;;7.30;6.27;;;30.40;32.40;;;;;;4956902;29;20530;-77
2023/06/12 11:50:28;;;;;;;6.23;5.57;;;30.40;32.30;;;;;;4951510;29;20224;-75
2023/06/12 11:52:55;;;;;;;6.80;6.20;;;30.40;32.30;;;;;;4971368;29;20409;-78
2023/06/12 11:55:22;;;;;;;6.47;5.97;;;30.30;32.40;;;;;;4943660;29;20201;-79
2023/06/12 11:57:50;;;;;;;7.13;6.43;;;30.20;32.60;;;;;;4970027;29;20481;-78
2023/06/12 12:00:19;;;;;;;6.57;6.03;;;30.20;32.70;;;;;;4941307;29;20471;-77
2023/06/12 12:02:51;;;;;;;7.00;6.40;;;30.20;33.10;;;;;;4930713;29;20496;-77
2023/06/12 12:05:20;;;;;;;6.73;6.13;;;30.30;33.00;;;;;;4953558;29;20430;-77
2023/06/12 12:07:52;;;;;;;8.60;7.30;;;30.40;32.80;;;;;;4936215;29;20421;-78
2023/06/12 12:10:18;;;;;;;7.60;7.00;;;30.50;32.40;;;;;;4937462;29;20453;-78
2023/06/12 12:12:49;;;;;;;7.53;6.83;;;30.70;32.40;;;;;;4955928;29;20955;-76
2023/06/12 12:15:16;;;;;;;6.87;5.70;;;30.80;32.60;;;;;;4957400;29;20472;-79
2023/06/12 12:17:43;;;;;;;8.30;7.60;;;30.90;32.50;;;;;;4956777;28;20437;-76
2023/06/12 12:20:21;;;;;;;5.83;5.43;;;30.80;32.20;;;;;;4952025;28;20446;-78
2023/06/12 12:22:48;;;;;;;7.03;6.43;;;30.80;32.20;;;;;;4953540;29;20432;-75
2023/06/12 12:25:19;;;;;;;9.63;7.13;;;30.90;31.60;;;;;;4952915;29;20433;-78
2023/06/12 12:27:46;;;;;;;6.83;6.23;;;31.00;30.90;;;;;;4937367;29;20409;-77
2023/06/12 12:30:19;;;;;;;7.50;6.90;;;30.80;31.20;;;;;;4952611;29;20460;-75
2023/06/12 12:32:47;;;;;;;6.93;6.23;;;30.70;31.30;;;;;;4952770;29;20421;-79
2023/06/12 12:35:14;;;;;;;9.17;7.33;;;30.70;31.60;;;;;;4933260;29;20453;-77
2023/06/12 12:37:41;;;;;;;7.90;7.20;;;30.50;31.60;;;;;;4970440;28;20502;-79
2023/06/12 12:40:10;;;;;;;6.27;5.67;;;30.40;32.00;;;;;;4958085;28;20503;-77
2023/06/12 12:42:47;;;;;;;7.97;7.17;;;30.20;32.40;;;;;;4939756;29;20464;-78
2023/06/12 12:45:17;;;;;;;6.43;5.93;;;30.40;32.40;;;;;;4952534;29;20414;-78
2023/06/12 12:47:51;;;;;;;7.50;6.57;;;30.50;31.50;;;;;;4935525;29;20706;-79